America, Illinois
Current Conditions -  °F | °C
As of 8:55 AM on Saturday 20 Dec 2014 (Local Time) from KCIR Reporting Station
Overcast Overcast  
Wind Chill: 38°   Ceiling: 6000
Heat Index: 38°   Visibility: 10mi
Dew Point: 31°   Wind: 3mph
Humidity: 75%   Direction: 80°E
Pressure: 30.31"   Gusts: NA
Location:  37.1575°N, 89.1781°W
Report Text: KCIR 201455Z AUTO 08003KT 10SM OVC060 04/00 A3031 RMK AO2 T00351005
Loading
Personal Weather Stations






























Interactive Weather Map New forecast layout! Learn more

10-Day Weather Forecast

Advertisements
Track Severe Weather on mobile